Time,TemperatureF,DewpointF,PressureIn,WindDirection,WindDirectionDegrees,WindSpeedMPH,WindSpeedGustMPH,Humidity,HourlyPrecipIn,Conditions,Clouds,dailyrainin,SoftwareType,DateUTC
2013-01-28 00:00:00,46.8,37.9,29.87,SE,132,0.0,0.0,71,0.00,,,0.00,meteohub,2013-01-28 07:00:00,
2013-01-28 00:06:00,46.6,37.8,29.87,SE,132,0.0,0.0,71,0.00,,,0.00,meteohub,2013-01-28 07:06:00,
2013-01-28 00:11:00,46.2,37.8,29.87,SE,132,0.0,0.0,72,0.00,,,0.00,meteohub,2013-01-28 07:11:00,
2013-01-28 00:16:00,46.0,37.6,29.87,SE,132,0.0,0.0,72,0.00,,,0.00,meteohub,2013-01-28 07:16:00,
2013-01-28 00:22:00,45.9,37.4,29.87,SE,132,0.0,0.0,72,0.00,,,0.00,meteohub,2013-01-28 07:22:00,
2013-01-28 00:27:00,45.7,37.6,29.87,SE,132,0.0,0.0,73,0.00,,,0.00,meteohub,2013-01-28 07:27:00,
2013-01-28 00:33:00,45.3,37.2,29.87,SE,132,0.0,0.0,73,0.00,,,0.00,meteohub,2013-01-28 07:33:00,
2013-01-28 00:38:00,45.0,37.2,29.87,SE,132,0.0,0.0,74,0.00,,,0.00,meteohub,2013-01-28 07:38:00,
2013-01-28 00:44:00,44.8,37.0,29.87,SE,132,0.0,0.0,74,0.00,,,0.00,meteohub,2013-01-28 07:44:00,
2013-01-28 00:50:00,44.6,36.9,29.87,SE,132,0.0,0.0,74,0.00,,,0.00,meteohub,2013-01-28 07:50:00,
2013-01-28 00:56:00,44.4,37.0,29.87,SE,132,0.0,0.0,75,0.00,,,0.00,meteohub,2013-01-28 07:56:00,
2013-01-28 01:01:00,44.2,36.9,29.87,SE,132,0.0,0.0,75,0.00,,,0.00,meteohub,2013-01-28 08:01:00,
2013-01-28 01:07:00,44.2,36.9,29.87,SE,132,0.0,0.0,75,0.00,,,0.00,meteohub,2013-01-28 08:07:00,
2013-01-28 01:12:00,44.1,37.0,29.86,SE,132,0.0,0.0,76,0.00,,,0.00,meteohub,2013-01-28 08:12:00,
2013-01-28 01:17:00,43.9,36.9,29.87,SE,132,0.0,0.0,76,0.00,,,0.00,meteohub,2013-01-28 08:17:00,
2013-01-28 01:22:00,43.9,36.9,29.87,SE,132,0.0,0.0,76,0.00,,,0.00,meteohub,2013-01-28 08:22:00,
2013-01-28 01:27:00,43.7,36.7,29.87,SE,132,0.0,0.0,76,0.00,,,0.00,meteohub,2013-01-28 08:27:00,
2013-01-28 01:32:00,43.5,36.5,29.87,SE,132,0.0,0.0,76,0.00,,,0.00,meteohub,2013-01-28 08:32:00,
2013-01-28 01:37:00,43.3,36.7,29.86,SE,132,0.0,0.0,77,0.00,,,0.00,meteohub,2013-01-28 08:37:00,
2013-01-28 01:42:00,43.3,36.7,29.86,SE,132,0.0,0.0,77,0.00,,,0.00,meteohub,2013-01-28 08:42:00,
2013-01-28 01:47:00,43.2,36.5,29.86,SE,132,0.0,0.0,77,0.00,,,0.00,meteohub,2013-01-28 08:47:00,
2013-01-28 01:52:00,43.2,36.7,29.86,SE,132,0.0,0.0,78,0.00,,,0.00,meteohub,2013-01-28 08:52:00,
2013-01-28 01:58:00,43.2,36.7,29.86,SE,132,0.0,0.0,78,0.00,,,0.00,meteohub,2013-01-28 08:58:00,
2013-01-28 02:04:00,43.0,36.7,29.86,SE,132,0.0,0.0,78,0.00,,,0.00,meteohub,2013-01-28 09:04:00,
2013-01-28 02:10:00,42.8,36.5,29.86,SE,132,0.0,0.0,78,0.00,,,0.00,meteohub,2013-01-28 09:10:00,
2013-01-28 02:16:00,42.8,36.7,29.86,SE,132,0.0,0.0,79,0.00,,,0.00,meteohub,2013-01-28 09:16:00,
2013-01-28 02:22:00,42.8,36.7,29.86,SE,132,0.0,0.0,79,0.00,,,0.00,meteohub,2013-01-28 09:22:00,
2013-01-28 02:27:00,43.0,36.7,29.86,SE,132,0.0,0.0,78,0.00,,,0.00,meteohub,2013-01-28 09:27:00,
2013-01-28 02:33:00,42.8,36.5,29.86,SE,132,0.0,0.0,78,0.00,,,0.00,meteohub,2013-01-28 09:33:00,
2013-01-28 02:39:00,42.6,36.5,29.86,SE,132,0.0,0.0,79,0.00,,,0.00,meteohub,2013-01-28 09:39:00,
2013-01-28 02:44:00,42.6,36.5,29.86,SE,132,0.0,0.0,79,0.00,,,0.00,meteohub,2013-01-28 09:44:00,
2013-01-28 02:50:00,42.6,36.5,29.86,SE,132,0.0,0.0,79,0.00,,,0.00,meteohub,2013-01-28 09:50:00,
2013-01-28 02:56:00,42.6,36.5,29.86,SE,132,0.0,0.0,79,0.00,,,0.00,meteohub,2013-01-28 09:56:00,
2013-01-28 03:02:00,42.4,36.1,29.86,SE,132,0.0,0.0,78,0.00,,,0.00,meteohub,2013-01-28 10:02:00,
2013-01-28 03:07:00,42.3,36.1,29.86,SE,132,0.0,0.0,79,0.00,,,0.00,meteohub,2013-01-28 10:07:00,
2013-01-28 03:13:00,42.1,36.0,29.86,SE,132,0.0,0.0,79,0.00,,,0.00,meteohub,2013-01-28 10:13:00,
2013-01-28 03:19:00,41.7,35.8,29.86,SE,132,0.0,0.0,79,0.00,,,0.00,meteohub,2013-01-28 10:19:00,
2013-01-28 03:25:00,41.7,36.0,29.86,SE,132,0.0,0.0,80,0.00,,,0.00,meteohub,2013-01-28 10:25:00,
2013-01-28 03:31:00,41.5,35.8,29.86,SE,132,0.0,0.0,80,0.00,,,0.00,meteohub,2013-01-28 10:31:00,
2013-01-28 03:37:00,41.7,36.0,29.86,SE,132,0.0,0.0,80,0.00,,,0.00,meteohub,2013-01-28 10:37:00,
2013-01-28 03:42:00,41.5,35.8,29.86,SE,132,0.0,0.0,80,0.00,,,0.00,meteohub,2013-01-28 10:42:00,
2013-01-28 03:48:00,41.5,35.8,29.86,SE,132,0.0,0.0,80,0.00,,,0.00,meteohub,2013-01-28 10:48:00,
2013-01-28 03:54:00,41.5,36.1,29.86,SE,132,0.0,0.0,81,0.00,,,0.00,meteohub,2013-01-28 10:54:00,
2013-01-28 03:59:00,41.4,36.0,29.86,SE,132,0.0,0.0,81,0.00,,,0.00,meteohub,2013-01-28 10:59:00,
2013-01-28 04:05:00,41.2,35.8,29.86,SE,132,0.0,0.0,81,0.00,,,0.00,meteohub,2013-01-28 11:05:00,
2013-01-28 04:11:00,41.0,37.2,29.86,SE,132,0.0,0.0,86,0.00,,,0.00,meteohub,2013-01-28 11:11:00,
2013-01-28 04:17:00,40.8,35.8,29.86,SE,132,0.0,0.0,82,0.00,,,0.00,meteohub,2013-01-28 11:17:00,
2013-01-28 04:23:00,40.8,36.1,29.86,SE,132,0.0,0.0,83,0.00,,,0.00,meteohub,2013-01-28 11:23:00,
2013-01-28 04:29:00,40.8,36.1,29.86,SE,132,0.0,0.0,83,0.00,,,0.00,meteohub,2013-01-28 11:29:00,
2013-01-28 04:34:00,40.8,35.8,29.86,SE,132,0.0,0.0,82,0.00,,,0.00,meteohub,2013-01-28 11:34:00,
2013-01-28 04:40:00,41.0,36.0,29.86,SE,132,0.0,0.0,82,0.00,,,0.00,meteohub,2013-01-28 11:40:00,
2013-01-28 04:46:00,41.0,36.3,29.85,SE,132,0.0,0.0,83,0.00,,,0.00,meteohub,2013-01-28 11:46:00,
2013-01-28 04:52:00,41.0,36.0,29.86,SE,132,0.0,0.0,82,0.00,,,0.00,meteohub,2013-01-28 11:52:00,
2013-01-28 04:58:00,40.8,35.8,29.86,SE,144,0.0,0.0,82,0.00,,,0.00,meteohub,2013-01-28 11:58:00,
2013-01-28 05:04:00,40.6,35.2,29.86,SE,144,0.0,0.0,81,0.00,,,0.00,meteohub,2013-01-28 12:04:00,
2013-01-28 05:10:00,40.5,35.1,29.86,SE,144,0.0,0.0,81,0.00,,,0.00,meteohub,2013-01-28 12:10:00,
2013-01-28 05:16:00,40.3,34.9,29.86,SE,144,0.0,0.0,81,0.00,,,0.00,meteohub,2013-01-28 12:16:00,
2013-01-28 05:22:00,39.9,34.5,29.86,SE,144,0.0,0.0,81,0.00,,,0.00,meteohub,2013-01-28 12:22:00,
2013-01-28 05:27:00,39.9,34.9,29.86,SE,144,0.0,0.0,82,0.00,,,0.00,meteohub,2013-01-28 12:27:00,
2013-01-28 05:32:00,39.7,34.7,29.86,SE,144,0.0,0.0,82,0.00,,,0.00,meteohub,2013-01-28 12:32:00,
2013-01-28 05:38:00,39.7,35.1,29.86,SE,144,0.0,0.0,83,0.00,,,0.00,meteohub,2013-01-28 12:38:00,
2013-01-28 05:44:00,39.7,35.2,29.86,SE,144,0.0,0.0,84,0.00,,,0.00,meteohub,2013-01-28 12:44:00,
2013-01-28 05:50:00,39.7,35.2,29.86,SE,144,0.0,0.0,84,0.00,,,0.00,meteohub,2013-01-28 12:50:00,
2013-01-28 05:56:00,39.9,35.8,29.86,SE,144,0.0,0.0,85,0.00,,,0.00,meteohub,2013-01-28 12:56:00,
2013-01-28 06:02:00,39.9,35.4,29.86,SE,144,0.0,0.0,84,0.00,,,0.00,meteohub,2013-01-28 13:02:00,
2013-01-28 06:07:00,40.1,35.6,29.86,SE,144,0.0,0.0,84,0.00,,,0.00,meteohub,2013-01-28 13:07:00,
2013-01-28 06:12:00,40.1,35.4,29.87,SE,144,0.0,0.0,83,0.00,,,0.00,meteohub,2013-01-28 13:12:00,
2013-01-28 06:18:00,39.9,35.4,29.87,SE,144,0.0,0.0,84,0.00,,,0.00,meteohub,2013-01-28 13:18:00,
2013-01-28 06:24:00,39.9,35.2,29.87,SE,144,0.0,0.0,83,0.00,,,0.00,meteohub,2013-01-28 13:24:00,
2013-01-28 06:30:00,39.7,35.2,29.87,SE,144,0.0,0.0,84,0.00,,,0.00,meteohub,2013-01-28 13:30:00,
2013-01-28 06:36:00,39.9,35.4,29.88,SE,144,0.0,0.0,84,0.00,,,0.00,meteohub,2013-01-28 13:36:00,
2013-01-28 06:42:00,40.1,36.0,29.88,SE,144,0.0,0.0,85,0.00,,,0.00,meteohub,2013-01-28 13:42:00,
2013-01-28 06:47:00,40.6,36.5,29.88,SE,144,0.0,0.0,85,0.00,,,0.00,meteohub,2013-01-28 13:47:00,
2013-01-28 06:53:00,41.2,37.0,29.88,SE,144,0.0,0.0,85,0.00,,,0.00,meteohub,2013-01-28 13:53:00,
2013-01-28 06:59:00,41.7,37.2,29.88,SE,144,0.0,0.0,84,0.00,,,0.00,meteohub,2013-01-28 13:59:00,
2013-01-28 07:05:00,42.3,37.4,29.88,SE,144,0.0,0.0,83,0.00,,,0.00,meteohub,2013-01-28 14:05:00,
2013-01-28 07:11:00,42.3,36.9,29.88,SE,144,0.0,0.0,81,0.00,,,0.00,meteohub,2013-01-28 14:11:00,
2013-01-28 07:16:00,42.1,36.0,29.88,SE,144,0.0,0.0,79,0.00,,,0.00,meteohub,2013-01-28 14:16:00,
2013-01-28 07:22:00,41.5,35.6,29.88,SE,144,0.0,0.0,79,0.00,,,0.00,meteohub,2013-01-28 14:22:00,
2013-01-28 07:27:00,41.5,35.8,29.88,SE,144,0.0,0.0,80,0.00,,,0.00,meteohub,2013-01-28 14:27:00,
2013-01-28 07:33:00,41.5,35.6,29.88,SE,144,0.0,0.0,79,0.00,,,0.00,meteohub,2013-01-28 14:33:00,
2013-01-28 07:39:00,41.5,35.6,29.88,SE,144,0.0,0.0,79,0.00,,,0.00,meteohub,2013-01-28 14:39:00,
2013-01-28 07:45:00,41.7,35.8,29.89,SE,144,0.0,0.0,79,0.00,,,0.00,meteohub,2013-01-28 14:45:00,
2013-01-28 07:51:00,41.9,35.6,29.89,SE,144,0.0,0.0,78,0.00,,,0.00,meteohub,2013-01-28 14:51:00,
2013-01-28 07:56:00,41.7,34.7,29.89,SE,144,0.0,0.0,76,0.00,,,0.00,meteohub,2013-01-28 14:56:00,
2013-01-28 08:02:00,41.7,34.3,29.90,SE,144,0.0,0.0,75,0.00,,,0.00,meteohub,2013-01-28 15:02:00,
2013-01-28 08:07:00,41.2,34.2,29.90,SE,144,0.0,0.0,76,0.00,,,0.00,meteohub,2013-01-28 15:07:00,
2013-01-28 08:13:00,40.8,34.5,29.90,SE,144,0.0,0.0,78,0.00,,,0.00,meteohub,2013-01-28 15:13:00,
2013-01-28 08:19:00,40.8,34.9,29.90,SE,144,0.0,0.0,79,0.00,,,0.00,meteohub,2013-01-28 15:19:00,
2013-01-28 08:25:00,41.2,34.9,29.90,SE,144,0.0,0.0,78,0.00,,,0.00,meteohub,2013-01-28 15:25:00,
2013-01-28 08:31:00,41.7,35.4,29.90,SE,144,0.0,0.0,78,0.00,,,0.00,meteohub,2013-01-28 15:31:00,
2013-01-28 08:37:00,42.4,36.3,29.90,SE,144,0.0,0.0,79,0.00,,,0.00,meteohub,2013-01-28 15:37:00,
2013-01-28 08:42:00,43.3,36.9,29.90,SE,144,0.0,0.0,78,0.00,,,0.00,meteohub,2013-01-28 15:42:00,
2013-01-28 08:47:00,44.6,37.8,29.90,SE,144,0.0,0.0,77,0.00,,,0.00,meteohub,2013-01-28 15:47:00,
2013-01-28 08:52:00,45.5,38.3,29.89,SE,143,0.0,0.0,76,0.00,,,0.00,meteohub,2013-01-28 15:52:00,
2013-01-28 08:57:00,46.2,38.5,29.89,SE,144,0.0,0.0,74,0.00,,,0.00,meteohub,2013-01-28 15:57:00,
2013-01-28 09:02:00,46.9,39.0,29.89,SE,143,0.0,0.0,74,0.00,,,0.00,meteohub,2013-01-28 16:02:00,
2013-01-28 09:07:00,47.7,39.0,29.89,SE,134,0.0,0.0,72,0.00,,,0.00,meteohub,2013-01-28 16:07:00,
2013-01-28 09:12:00,48.4,39.7,29.89,SE,133,0.0,0.0,72,0.00,,,0.00,meteohub,2013-01-28 16:12:00,
2013-01-28 09:17:00,48.9,39.9,29.89,ESE,115,0.0,0.0,71,0.00,,,0.00,meteohub,2013-01-28 16:17:00,
2013-01-28 09:22:00,49.5,40.1,29.89,ESE,121,0.0,0.0,70,0.00,,,0.00,meteohub,2013-01-28 16:22:00,
2013-01-28 09:27:00,50.2,40.5,29.89,SE,128,0.0,0.0,69,0.00,,,0.00,meteohub,2013-01-28 16:27:00,
2013-01-28 09:32:00,50.9,40.6,29.89,SE,128,0.0,0.0,68,0.00,,,0.00,meteohub,2013-01-28 16:32:00,
2013-01-28 09:38:00,52.0,40.6,29.89,SE,128,0.0,0.0,65,0.00,,,0.00,meteohub,2013-01-28 16:38:00,
2013-01-28 09:43:00,53.1,40.8,29.89,SE,128,0.0,0.0,63,0.00,,,0.00,meteohub,2013-01-28 16:43:00,
2013-01-28 09:49:00,54.1,41.0,29.88,SE,128,0.0,0.0,61,0.00,,,0.00,meteohub,2013-01-28 16:49:00,
2013-01-28 09:55:00,54.9,40.8,29.89,SE,132,0.0,0.0,59,0.00,,,0.00,meteohub,2013-01-28 16:55:00,
2013-01-28 10:01:00,55.8,41.2,29.89,SE,132,0.0,0.0,58,0.00,,,0.00,meteohub,2013-01-28 17:01:00,
2013-01-28 10:07:00,56.3,40.8,29.89,SSW,205,0.0,0.0,56,0.00,,,0.00,meteohub,2013-01-28 17:07:00,
2013-01-28 10:12:00,56.7,41.2,29.88,SSW,205,0.0,0.0,56,0.00,,,0.00,meteohub,2013-01-28 17:12:00,
2013-01-28 10:17:00,57.4,40.8,29.88,SW,225,0.0,0.0,54,0.00,,,0.00,meteohub,2013-01-28 17:17:00,
2013-01-28 10:23:00,57.6,40.6,29.88,SE,144,0.0,0.0,53,0.00,,,0.00,meteohub,2013-01-28 17:23:00,
2013-01-28 10:29:00,57.7,40.6,29.88,SSW,205,0.0,0.0,53,0.00,,,0.00,meteohub,2013-01-28 17:29:00,
2013-01-28 10:34:00,57.9,40.5,29.88,South,183,0.0,0.0,52,0.00,,,0.00,meteohub,2013-01-28 17:34:00,
2013-01-28 10:40:00,58.5,40.5,29.88,SW,221,0.0,0.0,51,0.00,,,0.00,meteohub,2013-01-28 17:40:00,
2013-01-28 10:46:00,59.5,38.1,29.88,WNW,289,0.0,0.0,45,0.00,,,0.00,meteohub,2013-01-28 17:46:00,
2013-01-28 10:52:00,60.3,35.8,29.88,WSW,254,0.0,0.0,40,0.00,,,0.00,meteohub,2013-01-28 17:52:00,
2013-01-28 10:57:00,60.6,35.6,29.88,WSW,250,0.0,0.0,39,0.00,,,0.00,meteohub,2013-01-28 17:57:00,
2013-01-28 11:02:00,60.1,34.3,29.88,West,277,0.0,0.0,38,0.00,,,0.00,meteohub,2013-01-28 18:02:00,
2013-01-28 11:07:00,59.9,34.9,29.88,West,259,0.0,0.0,39,0.00,,,0.00,meteohub,2013-01-28 18:07:00,
2013-01-28 11:12:00,59.7,34.7,29.87,SW,225,0.0,0.0,39,0.00,,,0.00,meteohub,2013-01-28 18:12:00,
2013-01-28 11:17:00,60.3,34.5,29.87,West,269,0.0,0.0,38,0.00,,,0.00,meteohub,2013-01-28 18:17:00,
2013-01-28 11:22:00,61.0,34.5,29.86,WNW,283,0.0,0.0,37,0.00,,,0.00,meteohub,2013-01-28 18:22:00,
2013-01-28 11:27:00,61.3,34.9,29.86,SSE,154,0.0,0.0,37,0.00,,,0.00,meteohub,2013-01-28 18:27:00,
2013-01-28 11:33:00,61.9,34.7,29.86,WSW,255,0.0,0.0,36,0.00,,,0.00,meteohub,2013-01-28 18:33:00,
2013-01-28 11:38:00,61.5,34.3,29.85,West,263,0.0,0.0,36,0.00,,,0.00,meteohub,2013-01-28 18:38:00,
2013-01-28 11:44:00,61.3,34.2,29.85,SW,224,0.0,0.0,36,0.00,,,0.00,meteohub,2013-01-28 18:44:00,
2013-01-28 11:50:00,61.2,34.7,29.85,WNW,300,0.0,0.0,37,0.00,,,0.00,meteohub,2013-01-28 18:50:00,
2013-01-28 11:56:00,61.2,35.4,29.84,SW,232,0.0,0.0,38,0.00,,,0.00,meteohub,2013-01-28 18:56:00,
2013-01-28 12:02:00,61.2,34.7,29.84,SW,227,0.0,0.0,37,0.00,,,0.00,meteohub,2013-01-28 19:02:00,
2013-01-28 12:07:00,61.2,35.4,29.84,South,188,0.0,0.0,38,0.00,,,0.00,meteohub,2013-01-28 19:07:00,
2013-01-28 12:12:00,61.2,35.4,29.84,West,263,0.0,0.0,38,0.00,,,0.00,meteohub,2013-01-28 19:12:00,
2013-01-28 12:18:00,61.2,34.7,29.83,West,266,0.0,0.0,37,0.00,,,0.00,meteohub,2013-01-28 19:18:00,
2013-01-28 12:23:00,60.8,35.1,29.83,SE,128,0.0,0.0,38,0.00,,,0.00,meteohub,2013-01-28 19:23:00,
2013-01-28 12:29:00,60.4,34.0,29.83,West,270,0.0,0.0,37,0.00,,,0.00,meteohub,2013-01-28 19:29:00,
2013-01-28 12:35:00,60.1,34.3,29.83,West,266,0.0,0.0,38,0.00,,,0.00,meteohub,2013-01-28 19:35:00,
2013-01-28 12:41:00,61.0,33.8,29.82,WSW,256,0.0,0.0,36,0.00,,,0.00,meteohub,2013-01-28 19:41:00,
2013-01-28 12:47:00,61.7,33.8,29.82,WSW,258,0.0,0.0,35,0.00,,,0.00,meteohub,2013-01-28 19:47:00,
2013-01-28 12:52:00,62.1,34.2,29.82,SW,235,0.0,0.0,35,0.00,,,0.00,meteohub,2013-01-28 19:52:00,
2013-01-28 12:58:00,61.9,34.7,29.81,WSW,257,0.0,0.0,36,0.00,,,0.00,meteohub,2013-01-28 19:58:00,
2013-01-28 13:04:00,61.5,33.6,29.81,West,279,0.0,0.0,35,0.00,,,0.00,meteohub,2013-01-28 20:04:00,
2013-01-28 13:10:00,61.5,33.6,29.80,SSW,207,0.0,0.0,35,0.00,,,0.00,meteohub,2013-01-28 20:10:00,
2013-01-28 13:16:00,62.4,33.6,29.80,West,270,0.0,0.0,34,0.00,,,0.00,meteohub,2013-01-28 20:16:00,
2013-01-28 13:22:00,61.9,34.0,29.79,WSW,249,0.0,0.0,35,0.00,,,0.00,meteohub,2013-01-28 20:22:00,
2013-01-28 13:27:00,61.7,33.8,29.79,South,178,0.0,0.0,35,0.00,,,0.00,meteohub,2013-01-28 20:27:00,
2013-01-28 13:32:00,61.5,33.6,29.79,WSW,251,0.0,0.0,35,0.00,,,0.00,meteohub,2013-01-28 20:32:00,
2013-01-28 13:38:00,61.3,34.2,29.79,WSW,253,0.0,0.0,36,0.00,,,0.00,meteohub,2013-01-28 20:38:00,
2013-01-28 13:44:00,62.1,34.9,29.78,West,271,0.0,0.0,36,0.00,,,0.00,meteohub,2013-01-28 20:44:00,
2013-01-28 13:50:00,62.4,34.3,29.78,WSW,246,0.0,0.0,35,0.00,,,0.00,meteohub,2013-01-28 20:50:00,
2013-01-28 13:56:00,62.1,34.2,29.77,WSW,248,0.0,0.0,35,0.00,,,0.00,meteohub,2013-01-28 20:56:00,
2013-01-28 14:02:00,62.1,34.2,29.77,South,187,0.0,0.0,35,0.00,,,0.00,meteohub,2013-01-28 21:02:00,
2013-01-28 14:07:00,62.2,34.9,29.77,WNW,282,0.0,0.0,36,0.00,,,0.00,meteohub,2013-01-28 21:07:00,
2013-01-28 14:12:00,63.0,34.2,29.76,WNW,282,0.0,0.0,34,0.00,,,0.00,meteohub,2013-01-28 21:12:00,
2013-01-28 14:17:00,62.2,34.2,29.77,WSW,247,0.0,0.0,35,0.00,,,0.00,meteohub,2013-01-28 21:17:00,
2013-01-28 14:23:00,62.1,34.2,29.76,West,266,0.0,0.0,35,0.00,,,0.00,meteohub,2013-01-28 21:23:00,
2013-01-28 14:29:00,62.1,34.2,29.76,SSW,198,0.0,0.0,35,0.00,,,0.00,meteohub,2013-01-28 21:29:00,
2013-01-28 14:35:00,62.4,34.3,29.76,SE,128,0.0,0.0,35,0.00,,,0.00,meteohub,2013-01-28 21:35:00,
2013-01-28 14:41:00,63.3,34.5,29.75,WSW,257,0.0,0.0,34,0.00,,,0.00,meteohub,2013-01-28 21:41:00,
2013-01-28 14:47:00,63.9,33.4,29.75,West,259,0.0,0.0,32,0.00,,,0.00,meteohub,2013-01-28 21:47:00,
2013-01-28 14:52:00,63.9,34.2,29.75,NW,317,0.0,0.0,33,0.00,,,0.00,meteohub,2013-01-28 21:52:00,
2013-01-28 14:57:00,63.0,34.2,29.75,WSW,245,0.0,0.0,34,0.00,,,0.00,meteohub,2013-01-28 21:57:00,
2013-01-28 15:02:00,62.8,33.3,29.76,West,259,0.0,0.0,33,0.00,,,0.00,meteohub,2013-01-28 22:02:00,
2013-01-28 15:08:00,62.8,34.0,29.76,WSW,243,0.0,0.0,34,0.00,,,0.00,meteohub,2013-01-28 22:08:00,
2013-01-28 15:14:00,63.0,33.4,29.75,West,268,0.0,0.0,33,0.00,,,0.00,meteohub,2013-01-28 22:14:00,
2013-01-28 15:20:00,63.1,34.3,29.75,West,275,0.0,0.0,34,0.00,,,0.00,meteohub,2013-01-28 22:20:00,
2013-01-28 15:26:00,63.9,34.9,29.75,SW,221,0.0,0.0,34,0.00,,,0.00,meteohub,2013-01-28 22:26:00,
2013-01-28 15:32:00,64.4,34.0,29.75,West,263,0.0,0.0,32,0.00,,,0.00,meteohub,2013-01-28 22:32:00,
2013-01-28 15:37:00,64.6,33.3,29.74,WNW,289,0.0,0.0,31,0.00,,,0.00,meteohub,2013-01-28 22:37:00,
2013-01-28 15:42:00,64.2,32.9,29.74,SW,233,0.0,0.0,31,0.00,,,0.00,meteohub,2013-01-28 22:42:00,
2013-01-28 15:48:00,63.9,32.7,29.74,WSW,257,0.0,0.0,31,0.00,,,0.00,meteohub,2013-01-28 22:48:00,
2013-01-28 15:54:00,64.2,32.9,29.74,SW,227,0.0,0.0,31,0.00,,,0.00,meteohub,2013-01-28 22:54:00,
2013-01-28 16:00:00,64.0,32.0,29.74,WSW,257,0.0,0.0,30,0.00,,,0.00,meteohub,2013-01-28 23:00:00,
2013-01-28 16:06:00,64.2,32.2,29.74,WNW,286,0.0,0.0,30,0.00,,,0.00,meteohub,2013-01-28 23:06:00,
2013-01-28 16:12:00,64.0,32.0,29.73,South,188,0.0,0.0,30,0.00,,,0.00,meteohub,2013-01-28 23:12:00,
2013-01-28 16:17:00,64.2,32.2,29.73,West,263,0.0,0.0,30,0.00,,,0.00,meteohub,2013-01-28 23:17:00,
2013-01-28 16:22:00,63.9,31.8,29.74,WSW,258,0.0,0.0,30,0.00,,,0.00,meteohub,2013-01-28 23:22:00,
2013-01-28 16:28:00,63.9,31.8,29.74,SE,131,0.0,0.0,30,0.00,,,0.00,meteohub,2013-01-28 23:28:00,
2013-01-28 16:34:00,63.7,31.6,29.74,West,279,0.0,0.0,30,0.00,,,0.00,meteohub,2013-01-28 23:34:00,
2013-01-28 16:40:00,63.5,32.4,29.74,WNW,286,0.0,0.0,31,0.00,,,0.00,meteohub,2013-01-28 23:40:00,
2013-01-28 16:46:00,63.3,32.9,29.73,West,279,0.0,0.0,32,0.00,,,0.00,meteohub,2013-01-28 23:46:00,
2013-01-28 16:52:00,63.0,31.8,29.73,NW,313,0.0,0.0,31,0.00,,,0.00,meteohub,2013-01-28 23:52:00,
2013-01-28 16:57:00,62.6,31.5,29.73,WSW,252,0.0,0.0,31,0.00,,,0.00,meteohub,2013-01-28 23:57:00,
2013-01-28 17:02:00,62.4,31.5,29.73,West,274,0.0,0.0,31,0.00,,,0.00,meteohub,2013-01-29 00:02:00,
2013-01-28 17:07:00,62.2,31.3,29.73,West,280,0.0,0.0,31,0.00,,,0.00,meteohub,2013-01-29 00:07:00,
2013-01-28 17:12:00,61.9,30.9,29.73,West,264,0.0,0.0,31,0.00,,,0.00,meteohub,2013-01-29 00:12:00,
2013-01-28 17:17:00,61.5,31.5,29.73,WSW,237,0.0,0.0,32,0.00,,,0.00,meteohub,2013-01-29 00:17:00,
2013-01-28 17:23:00,61.2,31.1,29.73,West,270,0.0,0.0,32,0.00,,,0.00,meteohub,2013-01-29 00:23:00,
2013-01-28 17:29:00,60.8,31.5,29.73,West,259,0.0,0.0,33,0.00,,,0.00,meteohub,2013-01-29 00:29:00,
2013-01-28 17:35:00,60.4,31.3,29.73,West,270,0.0,0.0,33,0.00,,,0.00,meteohub,2013-01-29 00:35:00,
2013-01-28 17:41:00,60.3,31.1,29.73,West,273,0.0,0.0,33,0.00,,,0.00,meteohub,2013-01-29 00:41:00,
2013-01-28 17:47:00,60.1,31.6,29.73,WSW,254,0.0,0.0,34,0.00,,,0.00,meteohub,2013-01-29 00:47:00,
2013-01-28 17:52:00,59.7,31.3,29.73,WSW,256,0.0,0.0,34,0.00,,,0.00,meteohub,2013-01-29 00:52:00,
2013-01-28 17:57:00,59.7,32.0,29.73,South,187,0.0,0.0,35,0.00,,,0.00,meteohub,2013-01-29 00:57:00,
2013-01-28 18:02:00,59.5,31.8,29.73,West,278,0.0,0.0,35,0.00,,,0.00,meteohub,2013-01-29 01:02:00,
2013-01-28 18:07:00,59.4,31.6,29.73,WSW,248,0.0,0.0,35,0.00,,,0.00,meteohub,2013-01-29 01:07:00,
2013-01-28 18:12:00,59.0,31.5,29.73,WNW,289,0.0,0.0,35,0.00,,,0.00,meteohub,2013-01-29 01:12:00,
2013-01-28 18:17:00,58.6,31.8,29.74,West,264,0.0,0.0,36,0.00,,,0.00,meteohub,2013-01-29 01:17:00,
2013-01-28 18:22:00,58.5,31.6,29.74,West,259,0.0,0.0,36,0.00,,,0.00,meteohub,2013-01-29 01:22:00,
2013-01-28 18:28:00,57.9,31.8,29.74,West,259,0.0,0.0,37,0.00,,,0.00,meteohub,2013-01-29 01:28:00,
2013-01-28 18:34:00,57.7,31.6,29.75,WSW,242,0.0,0.0,37,0.00,,,0.00,meteohub,2013-01-29 01:34:00,
2013-01-28 18:40:00,57.6,31.5,29.75,WSW,247,0.0,0.0,37,0.00,,,0.00,meteohub,2013-01-29 01:40:00,
2013-01-28 18:46:00,57.0,31.6,29.75,West,261,0.0,0.0,38,0.00,,,0.00,meteohub,2013-01-29 01:46:00,
2013-01-28 18:52:00,56.8,31.5,29.75,SW,225,0.0,0.0,38,0.00,,,0.00,meteohub,2013-01-29 01:52:00,
2013-01-28 18:57:00,56.8,32.2,29.76,West,263,0.0,0.0,39,0.00,,,0.00,meteohub,2013-01-29 01:57:00,
2013-01-28 19:03:00,56.8,32.2,29.76,West,267,0.0,0.0,39,0.00,,,0.00,meteohub,2013-01-29 02:03:00,
2013-01-28 19:09:00,56.7,32.0,29.76,West,275,0.0,0.0,39,0.00,,,0.00,meteohub,2013-01-29 02:09:00,
2013-01-28 19:15:00,56.5,32.4,29.76,NW,311,0.0,0.0,40,0.00,,,0.00,meteohub,2013-01-29 02:15:00,
2013-01-28 19:21:00,55.8,33.1,29.75,WSW,252,0.0,0.0,42,0.00,,,0.00,meteohub,2013-01-29 02:21:00,
2013-01-28 19:27:00,55.2,33.1,29.76,NW,306,0.0,0.0,43,0.00,,,0.00,meteohub,2013-01-29 02:27:00,
2013-01-28 19:33:00,54.9,33.4,29.75,West,275,0.0,0.0,44,0.00,,,0.00,meteohub,2013-01-29 02:33:00,
2013-01-28 19:39:00,54.3,33.4,29.75,West,264,0.0,0.0,45,0.00,,,0.00,meteohub,2013-01-29 02:39:00,
2013-01-28 19:44:00,54.1,33.3,29.77,West,267,0.0,0.0,45,0.00,,,0.00,meteohub,2013-01-29 02:44:00,
2013-01-28 19:50:00,54.0,33.6,29.77,WSW,249,0.0,0.0,46,0.00,,,0.00,meteohub,2013-01-29 02:50:00,
2013-01-28 19:56:00,53.6,33.3,29.77,WSW,256,0.0,0.0,46,0.00,,,0.00,meteohub,2013-01-29 02:56:00,
2013-01-28 20:02:00,53.4,33.1,29.77,WSW,251,0.0,0.0,46,0.00,,,0.00,meteohub,2013-01-29 03:02:00,
2013-01-28 20:07:00,53.2,33.4,29.77,West,263,0.0,0.0,47,0.00,,,0.00,meteohub,2013-01-29 03:07:00,
2013-01-28 20:12:00,53.1,33.8,29.77,West,261,0.0,0.0,48,0.00,,,0.00,meteohub,2013-01-29 03:12:00,
2013-01-28 20:17:00,53.1,34.9,29.77,WSW,254,0.0,0.0,50,0.00,,,0.00,meteohub,2013-01-29 03:17:00,
2013-01-28 20:22:00,52.9,35.2,29.77,WSW,253,0.0,0.0,51,0.00,,,0.00,meteohub,2013-01-29 03:22:00,
2013-01-28 20:27:00,52.5,35.4,29.77,West,271,0.0,0.0,52,0.00,,,0.00,meteohub,2013-01-29 03:27:00,
2013-01-28 20:32:00,52.2,35.6,29.77,WSW,257,0.0,0.0,53,0.00,,,0.00,meteohub,2013-01-29 03:32:00,
2013-01-28 20:37:00,52.0,35.8,29.77,WSW,254,0.0,0.0,54,0.00,,,0.00,meteohub,2013-01-29 03:37:00,
2013-01-28 20:42:00,51.6,36.0,29.77,WSW,254,0.0,0.0,55,0.00,,,0.00,meteohub,2013-01-29 03:42:00,
2013-01-28 20:47:00,51.4,35.8,29.77,WSW,256,0.0,0.0,55,0.00,,,0.00,meteohub,2013-01-29 03:47:00,
2013-01-28 20:53:00,51.1,36.0,29.77,West,271,0.0,0.0,56,0.00,,,0.00,meteohub,2013-01-29 03:53:00,
2013-01-28 20:59:00,50.9,35.8,29.77,West,274,0.0,0.0,56,0.00,,,0.00,meteohub,2013-01-29 03:59:00,
2013-01-28 21:04:00,50.7,36.0,29.78,WSW,256,0.0,0.0,57,0.00,,,0.00,meteohub,2013-01-29 04:04:00,
2013-01-28 21:10:00,50.5,36.0,29.78,WSW,254,0.0,0.0,57,0.00,,,0.00,meteohub,2013-01-29 04:10:00,
2013-01-28 21:16:00,50.4,36.1,29.78,WSW,251,0.0,0.0,58,0.00,,,0.00,meteohub,2013-01-29 04:16:00,
2013-01-28 21:22:00,50.2,36.0,29.77,WSW,252,0.0,0.0,58,0.00,,,0.00,meteohub,2013-01-29 04:22:00,
2013-01-28 21:27:00,49.8,35.6,29.76,WSW,252,0.0,0.0,58,0.00,,,0.00,meteohub,2013-01-29 04:27:00,
2013-01-28 21:33:00,49.6,36.0,29.76,WSW,252,0.0,0.0,59,0.00,,,0.00,meteohub,2013-01-29 04:33:00,
2013-01-28 21:38:00,49.5,35.8,29.77,WSW,252,0.0,0.0,59,0.00,,,0.00,meteohub,2013-01-29 04:38:00,
2013-01-28 21:44:00,49.3,35.6,29.77,WSW,252,0.0,0.0,59,0.00,,,0.00,meteohub,2013-01-29 04:44:00,
2013-01-28 21:49:00,49.1,35.8,29.78,WSW,252,0.0,0.0,60,0.00,,,0.00,meteohub,2013-01-29 04:49:00,
2013-01-28 21:55:00,48.9,35.6,29.77,WSW,252,0.0,0.0,60,0.00,,,0.00,meteohub,2013-01-29 04:55:00,
2013-01-28 22:03:00,48.9,35.6,29.77,WSW,252,0.0,0.0,60,0.00,,,0.00,meteohub,2013-01-29 05:03:00,
2013-01-28 22:07:00,48.7,35.4,29.77,WSW,252,0.0,0.0,60,0.00,,,0.00,meteohub,2013-01-29 05:07:00,
2013-01-28 22:12:00,48.6,35.8,29.78,West,261,0.0,0.0,61,0.00,,,0.00,meteohub,2013-01-29 05:12:00,
2013-01-28 22:17:00,48.4,35.6,29.78,WSW,257,0.0,0.0,61,0.00,,,0.00,meteohub,2013-01-29 05:17:00,
2013-01-28 22:23:00,48.0,35.2,29.78,West,262,0.0,0.0,61,0.00,,,0.00,meteohub,2013-01-29 05:23:00,
2013-01-28 22:28:00,47.7,35.2,29.78,WNW,288,0.0,0.0,62,0.00,,,0.00,meteohub,2013-01-29 05:28:00,
2013-01-28 22:34:00,47.5,35.1,29.78,WNW,288,0.0,0.0,62,0.00,,,0.00,meteohub,2013-01-29 05:34:00,
2013-01-28 22:40:00,46.9,35.1,29.78,West,265,0.0,0.0,63,0.00,,,0.00,meteohub,2013-01-29 05:40:00,
2013-01-28 22:45:00,46.8,35.2,29.78,West,281,0.0,0.0,64,0.00,,,0.00,meteohub,2013-01-29 05:45:00,
2013-01-28 22:51:00,46.4,34.9,29.78,West,280,0.0,0.0,64,0.00,,,0.00,meteohub,2013-01-29 05:51:00,
2013-01-28 22:57:00,46.2,34.7,29.79,WNW,290,0.0,0.0,64,0.00,,,0.00,meteohub,2013-01-29 05:57:00,
2013-01-28 23:02:00,46.0,34.5,29.78,West,276,0.0,0.0,64,0.00,,,0.00,meteohub,2013-01-29 06:02:00,
2013-01-28 23:08:00,46.0,34.5,29.78,West,277,0.0,0.0,64,0.00,,,0.00,meteohub,2013-01-29 06:08:00,
2013-01-28 23:14:00,45.9,34.0,29.78,West,281,0.0,0.0,63,0.00,,,0.00,meteohub,2013-01-29 06:14:00,
2013-01-28 23:20:00,45.9,33.6,29.79,West,267,0.0,0.0,62,0.00,,,0.00,meteohub,2013-01-29 06:20:00,
2013-01-28 23:26:00,46.0,33.8,29.79,North,5,0.0,0.0,62,0.00,,,0.00,meteohub,2013-01-29 06:26:00,
2013-01-28 23:32:00,46.0,33.8,29.79,West,260,0.0,0.0,62,0.00,,,0.00,meteohub,2013-01-29 06:32:00,
2013-01-28 23:37:00,45.9,33.3,29.79,West,259,0.0,0.0,61,0.00,,,0.00,meteohub,2013-01-29 06:37:00,
2013-01-28 23:42:00,45.9,33.3,29.79,West,280,0.0,0.0,61,0.00,,,0.00,meteohub,2013-01-29 06:42:00,
2013-01-28 23:48:00,45.7,33.4,29.79,West,280,0.0,0.0,62,0.00,,,0.00,meteohub,2013-01-29 06:48:00,
2013-01-28 23:53:00,45.5,33.3,29.79,West,280,0.0,0.0,62,0.00,,,0.00,meteohub,2013-01-29 06:53:00,
2013-01-28 23:59:00,45.5,32.9,29.80,West,277,0.0,0.0,61,0.00,,,0.00,meteohub,2013-01-29 06:59:00,